Time;durP1;ratioP1;P1;durP2;ratioP2;P2;SDS_P1;SDS_P2;PMS_P1;PMS_P2;Temp;Humidity;BMP_temperature;BMP_pressure;BME280_temperature;BME280_humidity;BME280_pressure;Samples;Min_cycle;Max_cycle;Signal;HPM_P1;HPM_P2
2023/02/27 00:00:51;;;;;;;;;;;;;;;28.46;23.32;100376.50;5057852;28;1054;-15
2023/02/27 00:03:16;;;;;;;;;;;;;;;29.26;22.57;100393.19;5058205;28;996;-15
2023/02/27 00:05:42;;;;;;;;;;;;;;;29.43;22.52;100399.88;5057789;28;1125;-15
2023/02/27 00:08:07;;;;;;;;;;;;;;;29.74;22.04;100383.22;5057816;28;1135;-14
2023/02/27 00:10:32;;;;;;;;;;;;;;;28.98;22.72;100388.78;5058290;28;1074;-15
2023/02/27 00:12:58;;;;;;;;;;;;;;;28.57;23.43;100380.47;5058023;28;1020;-15
2023/02/27 00:15:24;;;;;;;;;;;;;;;29.40;22.31;100388.63;5057917;28;2331;-15
2023/02/27 00:17:49;;;;;;;;;;;;;;;29.37;22.35;100394.44;5057626;28;1910;-14
2023/02/27 00:20:15;;;;;;;;;;;;;;;29.65;22.06;100407.00;5057958;28;1214;-15
2023/02/27 00:22:41;;;;;;;;;;;;;;;29.41;22.28;100399.25;5058021;28;1035;-15
2023/02/27 00:25:06;;;;;;;;;;;;;;;28.75;23.03;100395.31;5057545;28;1099;-14
2023/02/27 00:27:32;;;;;;;;;;;;;;;29.04;23.01;100386.09;5058171;28;995;-15
2023/02/27 00:29:58;;;;;;;;;;;;;;;29.37;22.37;100378.19;5057867;28;1035;-15
2023/02/27 00:32:23;;;;;;;;;;;;;;;29.67;22.13;100373.22;5056131;28;1175;-15
2023/02/27 00:34:49;;;;;;;;;;;;;;;29.33;22.48;100375.91;5057561;28;1047;-15
2023/02/27 00:37:15;;;;;;;;;;;;;;;28.94;22.90;100380.19;5057231;28;1071;-15
2023/02/27 00:39:40;;;;;;;;;;;;;;;29.64;22.19;100379.06;5057386;28;1910;-15
2023/02/27 00:42:06;;;;;;;;;;;;;;;29.54;22.32;100368.63;5055929;28;1048;-15
2023/02/27 00:44:31;;;;;;;;;;;;;;;29.80;22.04;100374.25;5057315;28;1043;-15
2023/02/27 00:46:57;;;;;;;;;;;;;;;29.54;22.21;100384.88;5057357;28;2620;-15
2023/02/27 00:49:24;;;;;;;;;;;;;;;28.93;22.69;100390.19;5055227;28;1272;-15
2023/02/27 00:51:51;;;;;;;;;;;;;;;29.54;22.41;100392.19;5055760;28;1330;-15
2023/02/27 00:54:16;;;;;;;;;;;;;;;29.40;22.61;100397.59;5057048;28;1138;-15
2023/02/27 00:56:42;;;;;;;;;;;;;;;29.74;21.98;100383.22;5057355;28;1054;-15
2023/02/27 00:59:07;;;;;;;;;;;;;;;29.57;22.07;100394.47;5056323;28;1979;-15
2023/02/27 01:01:33;;;;;;;;;;;;;;;28.83;22.96;100387.88;5056894;28;1110;-15
2023/02/27 01:03:58;;;;;;;;;;;;;;;28.66;23.43;100395.50;5057348;28;1186;-15
2023/02/27 01:06:24;;;;;;;;;;;;;;;30.00;21.63;100395.06;5055952;28;1254;-15
2023/02/27 01:08:49;;;;;;;;;;;;;;;28.60;23.34;100390.91;5056543;28;1090;-15
2023/02/27 01:11:15;;;;;;;;;;;;;;;28.52;23.44;100393.78;5056702;28;1078;-15
2023/02/27 01:13:40;;;;;;;;;;;;;;;29.62;22.26;100402.84;5056258;28;1207;-15
2023/02/27 01:16:07;;;;;;;;;;;;;;;30.43;21.25;100404.59;5055179;28;2338;-15
2023/02/27 01:18:32;;;;;;;;;;;;;;;28.66;22.91;100416.34;5056076;28;1922;-15
2023/02/27 01:20:58;;;;;;;;;;;;;;;28.56;23.16;100422.94;5056874;28;1031;-15
2023/02/27 01:23:23;;;;;;;;;;;;;;;29.91;21.83;100429.72;5056629;28;1155;-14
2023/02/27 01:25:49;;;;;;;;;;;;;;;29.68;21.84;100426.38;5055995;28;1042;-15
2023/02/27 01:28:15;;;;;;;;;;;;;;;28.46;23.45;100433.31;5057045;28;1151;-15
2023/02/27 01:30:42;;;;;;;;;;;;;;;28.85;22.96;100442.66;5055245;28;1219;-15
2023/02/27 01:33:07;;;;;;;;;;;;;;;29.73;21.80;100436.59;5056553;28;1067;-15
2023/02/27 01:35:33;;;;;;;;;;;;;;;29.41;22.16;100430.94;5071612;28;1012;-14
2023/02/27 01:37:58;;;;;;;;;;;;;;;28.18;23.60;100428.72;5060189;28;1981;-14
2023/02/27 01:40:24;;;;;;;;;;;;;;;28.78;23.42;100428.25;5056417;28;1143;-14
2023/02/27 01:42:49;;;;;;;;;;;;;;;30.16;21.56;100429.06;5054987;28;1183;-14
2023/02/27 01:45:27;;;;;;;;;;;;;;;28.41;23.32;100436.59;5054749;28;1836;-14
2023/02/27 01:47:55;;;;;;;;;;;;;;;27.98;24.29;100443.78;5056309;28;1110;-14
2023/02/27 01:50:21;;;;;;;;;;;;;;;29.30;22.70;100454.03;5056263;28;1115;-14
2023/02/27 01:52:48;;;;;;;;;;;;;;;30.14;21.59;100453.69;5055989;28;1261;-14
2023/02/27 01:55:14;;;;;;;;;;;;;;;28.30;23.29;100450.66;5054744;28;993;-17
2023/02/27 01:57:39;;;;;;;;;;;;;;;28.44;23.46;100457.88;5054968;28;1906;-14
2023/02/27 02:00:05;;;;;;;;;;;;;;;29.74;22.20;100467.28;5037961;28;1138;-14
2023/02/27 02:02:39;;;;;;;;;;;;;;;29.04;22.65;100451.09;5055448;28;1087;-15
2023/02/27 02:05:05;;;;;;;;;;;;;;;28.15;23.61;100450.75;5055528;28;1147;-15
2023/02/27 02:07:31;;;;;;;;;;;;;;;28.32;23.80;100448.59;5031460;28;1088;-15
2023/02/27 02:09:57;;;;;;;;;;;;;;;29.45;22.21;100438.44;5047566;28;1106;-15
2023/02/27 02:12:25;;;;;;;;;;;;;;;29.54;22.04;100454.50;5041006;28;1144;-14
2023/02/27 02:14:50;;;;;;;;;;;;;;;28.04;24.13;100465.66;5054115;28;923;-15
2023/02/27 02:17:38;;;;;;;;;;;;;;;28.28;23.93;100463.56;5055532;28;2399;-14
2023/02/27 02:20:07;;;;;;;;;;;;;;;30.17;21.76;100466.00;5055632;28;1064;-16
2023/02/27 02:22:41;;;;;;;;;;;;;;;28.22;23.74;100459.75;5055547;28;1138;-16
2023/02/27 02:25:12;;;;;;;;;;;;;;;27.77;24.47;100466.28;5054209;28;1044;-17
2023/02/27 02:27:57;;;;;;;;;;;;;;;29.44;22.61;100463.03;5034736;28;1048;-17
2023/02/27 02:30:40;;;;;;;;;;;;;;;30.12;21.57;100469.34;5047869;28;1045;-17
2023/02/27 02:33:24;;;;;;;;;;;;;;;27.99;24.27;100455.44;5054236;28;1230;-16
2023/02/27 02:35:53;;;;;;;;;;;;;;;28.47;23.79;100468.28;5055305;28;1190;-16
2023/02/27 02:38:27;;;;;;;;;;;;;;;30.19;21.50;100478.31;5054911;28;1906;-14
2023/02/27 02:41:06;;;;;;;;;;;;;;;28.19;23.89;100477.25;5070868;28;1461;-17
2023/02/27 02:43:46;;;;;;;;;;;;;;;27.87;24.32;100472.22;5055521;28;999;-16
2023/02/27 02:46:15;;;;;;;;;;;;;;;29.48;22.50;100479.72;5050547;28;2240;-13
2023/02/27 02:49:00;;;;;;;;;;;;;;;30.13;21.65;100479.13;5037914;28;1180;-17
2023/02/27 02:51:25;;;;;;;;;;;;;;;28.22;23.60;100481.41;5055112;28;925;-14
2023/02/27 02:54:11;;;;;;;;;;;;;;;28.44;23.52;100476.81;5054076;28;1330;-14
2023/02/27 02:56:42;;;;;;;;;;;;;;;29.92;21.75;100477.50;5055113;28;1157;-15
2023/02/27 02:59:20;;;;;;;;;;;;;;;28.52;23.17;100467.69;5055432;28;1910;-14
2023/02/27 03:01:49;;;;;;;;;;;;;;;28.08;23.86;100470.47;5043467;28;1189;-14
2023/02/27 03:04:19;;;;;;;;;;;;;;;29.22;22.76;100465.91;5041300;28;1192;-14
2023/02/27 03:06:49;;;;;;;;;;;;;;;30.08;21.53;100475.41;5055274;28;1369;-14
2023/02/27 03:09:25;;;;;;;;;;;;;;;28.55;23.16;100469.13;5046188;28;1110;-14
2023/02/27 03:11:51;;;;;;;;;;;;;;;28.53;23.23;100473.94;5053156;28;1005;-15
2023/02/27 03:14:25;;;;;;;;;;;;;;;29.68;22.05;100467.06;5054876;28;1079;-15
2023/02/27 03:16:52;;;;;;;;;;;;;;;29.38;22.09;100480.94;5056463;28;2253;-17
2023/02/27 03:19:21;;;;;;;;;;;;;;;28.16;23.80;100471.38;5057761;28;1914;-14
2023/02/27 03:21:49;;;;;;;;;;;;;;;28.43;23.72;100483.22;5059171;28;1035;-15
2023/02/27 03:24:35;;;;;;;;;;;;;;;29.60;22.15;100472.69;5058160;28;1113;-15
2023/02/27 03:27:03;;;;;;;;;;;;;;;28.66;22.97;100465.06;5052101;28;1677;-13
2023/02/27 03:29:35;;;;;;;;;;;;;;;28.25;23.97;100475.59;5040847;28;1048;-16
2023/02/27 03:32:02;;;;;;;;;;;;;;;29.31;22.65;100482.81;5049227;28;1124;-16
2023/02/27 03:34:29;;;;;;;;;;;;;;;30.08;21.70;100481.63;5069209;28;1163;-15
2023/02/27 03:37:01;;;;;;;;;;;;;;;28.32;23.54;100473.78;5074146;28;1409;-14
2023/02/27 03:39:36;;;;;;;;;;;;;;;28.30;23.65;100464.19;5055188;28;1909;-15
2023/02/27 03:42:17;;;;;;;;;;;;;;;29.50;22.40;100459.50;5056945;28;1398;-15
2023/02/27 03:45:06;;;;;;;;;;;;;;;29.20;22.25;100470.69;5058674;28;901;-14
2023/02/27 03:47:31;;;;;;;;;;;;;;;28.13;23.79;100456.38;5056914;28;2490;-16
2023/02/27 03:49:57;;;;;;;;;;;;;;;29.01;23.25;100448.75;5056911;28;1330;-15
2023/02/27 03:52:23;;;;;;;;;;;;;;;30.04;21.79;100448.69;5057102;28;1444;-15
2023/02/27 03:54:50;;;;;;;;;;;;;;;28.46;23.24;100453.06;5058446;28;932;-15
2023/02/27 03:57:16;;;;;;;;;;;;;;;28.23;23.92;100453.31;5040254;28;2134;-15
2023/02/27 03:59:41;;;;;;;;;;;;;;;29.35;22.91;100454.25;5057162;28;1977;-15
2023/02/27 04:02:07;;;;;;;;;;;;;;;30.09;21.69;100458.91;5056647;28;1107;-15
2023/02/27 04:04:38;;;;;;;;;;;;;;;28.57;23.36;100453.53;5056389;28;1374;-15
2023/02/27 04:07:45;;;;;;;;;;;;;;;28.32;23.55;100454.84;5058108;28;1119;-15
2023/02/27 04:10:06;;;;;;;;;;;;;;;29.55;22.26;100454.28;5056776;28;1356;-15
2023/02/27 04:12:50;;;;;;;;;;;;;;;29.44;22.09;100463.88;5058332;28;1043;-15
2023/02/27 04:15:31;;;;;;;;;;;;;;;28.08;23.86;100454.25;5050070;28;1093;-15
2023/02/27 04:18:03;;;;;;;;;;;;;;;29.15;22.99;100455.06;5048426;28;1906;-15
2023/02/27 04:20:28;;;;;;;;;;;;;;;29.80;22.13;100464.56;5044989;28;1009;-15
2023/02/27 04:22:54;;;;;;;;;;;;;;;28.49;23.36;100454.56;5037620;28;1035;-14
2023/02/27 04:25:23;;;;;;;;;;;;;;;28.23;23.79;100440.63;5037717;28;1242;-15
2023/02/27 04:27:54;;;;;;;;;;;;;;;29.30;22.81;100435.91;5050714;28;848;-15
2023/02/27 04:30:27;;;;;;;;;;;;;;;29.78;22.11;100447.66;5049587;28;1203;-14
2023/02/27 04:32:54;;;;;;;;;;;;;;;28.04;24.34;100460.25;5056400;28;1115;-14
2023/02/27 04:35:24;;;;;;;;;;;;;;;28.19;24.15;100455.59;5057133;28;1162;-14
2023/02/27 04:37:53;;;;;;;;;;;;;;;29.66;22.48;100458.28;5056391;28;1910;-14
2023/02/27 04:40:32;;;;;;;;;;;;;;;28.69;23.40;100456.53;5057043;28;1040;-14
2023/02/27 04:42:58;;;;;;;;;;;;;;;26.32;24.61;100454.97;5056938;28;1103;-15
2023/02/27 04:45:23;;;;;;;;;;;;;;;26.38;24.96;100458.81;5055004;28;1824;-14
2023/02/27 04:47:53;;;;;;;;;;;;;;;26.39;24.83;100471.28;5050992;28;1144;-15
2023/02/27 04:50:26;;;;;;;;;;;;;;;26.56;24.28;100476.50;5037787;28;1198;-15
2023/02/27 04:52:53;;;;;;;;;;;;;;;27.02;23.81;100491.66;5055809;28;1259;-15
2023/02/27 04:55:29;;;;;;;;;;;;;;;27.39;23.58;100497.06;5057427;28;1024;-14
2023/02/27 04:57:57;;;;;;;;;;;;;;;27.30;24.01;100492.78;5041958;28;1910;-16
2023/02/27 05:00:23;;;;;;;;;;;;;;;29.14;21.73;100502.16;5043631;28;1219;-16
2023/02/27 05:02:52;;;;;;;;;;;;;;;28.73;22.01;100503.78;5055800;28;1064;-15
2023/02/27 05:05:22;;;;;;;;;;;;;;;29.23;21.60;100502.78;5054696;28;1127;-15
2023/02/27 05:07:49;;;;;;;;;;;;;;;29.39;21.16;100507.00;5054470;28;1132;-16
2023/02/27 05:10:19;;;;;;;;;;;;;;;29.50;21.25;100507.44;5054684;28;1060;-15
2023/02/27 05:12:47;;;;;;;;;;;;;;;28.16;22.59;100520.88;5055936;28;1064;-15
2023/02/27 05:15:15;;;;;;;;;;;;;;;27.20;23.70;100518.25;5048813;28;1140;-15
2023/02/27 05:18:00;;;;;;;;;;;;;;;29.11;21.51;100521.50;5055649;28;2794;-16
2023/02/27 05:20:26;;;;;;;;;;;;;;;29.45;20.91;100519.75;5056559;28;1047;-15
2023/02/27 05:23:27;;;;;;;;;;;;;;;29.29;21.16;100533.66;5055487;28;1008;-15
2023/02/27 05:26:06;;;;;;;;;;;;;;;29.31;21.15;100523.47;5014561;28;1396;-15
2023/02/27 05:28:45;;;;;;;;;;;;;;;28.55;22.89;100523.25;5064401;28;976;-15
2023/02/27 05:31:22;;;;;;;;;;;;;;;28.00;23.43;100527.41;5055208;28;1167;-16
2023/02/27 05:33:56;;;;;;;;;;;;;;;29.28;22.74;100532.81;5043023;28;1117;-15
2023/02/27 05:36:35;;;;;;;;;;;;;;;29.77;22.10;100531.91;5056736;28;1091;-15
2023/02/27 05:39:05;;;;;;;;;;;;;;;29.60;22.70;100535.00;5054339;28;1906;-15
2023/02/27 05:41:32;;;;;;;;;;;;;;;29.43;22.87;100534.50;5054636;28;1047;-16
2023/02/27 05:44:20;;;;;;;;;;;;;;;29.96;22.51;100537.56;5054484;28;1207;-16
2023/02/27 05:46:57;;;;;;;;;;;;;;;29.80;22.47;100542.34;5042594;28;2659;-15
2023/02/27 05:49:30;;;;;;;;;;;;;;;29.52;22.50;100544.16;5051199;28;1026;-15
2023/02/27 05:51:56;;;;;;;;;;;;;;;29.64;22.36;100547.13;5055901;28;972;-15
2023/02/27 05:54:28;;;;;;;;;;;;;;;30.03;22.25;100551.97;5054571;28;1131;-15
2023/02/27 05:56:54;;;;;;;;;;;;;;;30.02;21.87;100561.13;5056091;28;1162;-15
2023/02/27 05:59:24;;;;;;;;;;;;;;;29.34;22.49;100556.38;5054547;28;1914;-15
2023/02/27 06:01:50;;;;;;;;;;;;;;;28.86;23.66;100568.03;5054944;28;1110;-15
2023/02/27 06:04:15;;;;;;;;;;;;;;;29.84;23.43;100568.00;5054760;28;878;-17
2023/02/27 06:06:41;;;;;;;;;;;;;;;29.06;23.71;100568.13;5056071;28;1115;-18
2023/02/27 06:09:07;;;;;;;;;;;;;;;28.13;24.64;100567.25;5054743;28;1052;-17
2023/02/27 06:11:32;;;;;;;;;;;;;;;28.76;24.36;100549.41;5038127;28;1088;-17
2023/02/27 06:13:58;;;;;;;;;;;;;;;29.66;22.71;100553.16;5055479;28;1108;-18
2023/02/27 06:16:23;;;;;;;;;;;;;;;28.78;23.06;100552.75;5055036;28;2470;-18
2023/02/27 06:18:48;;;;;;;;;;;;;;;28.01;24.25;100560.69;5055845;28;1906;-18
2023/02/27 06:21:14;;;;;;;;;;;;;;;28.29;24.28;100565.31;5042295;28;1508;-18
2023/02/27 06:23:39;;;;;;;;;;;;;;;29.67;22.33;100562.97;5055828;28;1106;-18
2023/02/27 06:26:05;;;;;;;;;;;;;;;27.93;23.97;100562.50;5055735;28;1015;-17
2023/02/27 06:28:30;;;;;;;;;;;;;;;27.65;24.89;100554.25;5044304;28;992;-17
2023/02/27 06:30:56;;;;;;;;;;;;;;;28.93;23.31;100549.06;5049216;28;1111;-17
2023/02/27 06:33:22;;;;;;;;;;;;;;;29.80;22.54;100566.75;5046163;28;1127;-17
2023/02/27 06:35:48;;;;;;;;;;;;;;;28.08;24.67;100575.94;5054277;28;1030;-18
2023/02/27 06:38:13;;;;;;;;;;;;;;;27.84;25.34;100577.97;5038068;28;1989;-17
2023/02/27 06:40:39;;;;;;;;;;;;;;;29.33;24.01;100578.25;5047848;28;852;-18
2023/02/27 06:43:04;;;;;;;;;;;;;;;28.62;24.27;100575.56;5044391;28;1147;-17
2023/02/27 06:45:30;;;;;;;;;;;;;;;27.92;25.34;100585.16;5044774;28;1247;-18
2023/02/27 06:47:55;;;;;;;;;;;;;;;27.67;25.48;100585.50;5053643;28;1058;-17
2023/02/27 06:50:21;;;;;;;;;;;;;;;29.36;24.34;100577.88;5044079;28;1003;-17
2023/02/27 06:52:46;;;;;;;;;;;;;;;28.45;24.67;100586.69;5048992;28;1071;-17
2023/02/27 06:55:11;;;;;;;;;;;;;;;27.91;25.61;100588.06;5040101;28;892;-17
2023/02/27 06:57:37;;;;;;;;;;;;;;;27.90;26.14;100583.66;5051255;28;1069;-17
2023/02/27 07:00:03;;;;;;;;;;;;;;;29.64;24.10;100600.50;5049421;28;1914;-17
2023/02/27 07:02:28;;;;;;;;;;;;;;;28.24;25.24;100592.94;5049667;28;1046;-16
2023/02/27 07:04:54;;;;;;;;;;;;;;;28.04;25.70;100599.00;5045750;28;1044;-17
2023/02/27 07:07:19;;;;;;;;;;;;;;;29.10;25.05;100590.25;5046625;28;891;-16
2023/02/27 07:09:45;;;;;;;;;;;;;;;29.38;23.71;100591.22;5051334;28;1060;-16
2023/02/27 07:12:10;;;;;;;;;;;;;;;28.01;25.59;100587.72;5041810;28;961;-17
2023/02/27 07:14:37;;;;;;;;;;;;;;;27.90;25.42;100581.81;5043603;28;1009;-17
2023/02/27 07:17:03;;;;;;;;;;;;;;;29.42;24.34;100581.63;5053785;28;1076;-17
2023/02/27 07:19:30;;;;;;;;;;;;;;;28.64;24.41;100570.81;5055728;28;1981;-17
2023/02/27 07:21:56;;;;;;;;;;;;;;;27.93;25.19;100572.44;5046510;28;1195;-16
2023/02/27 07:24:21;;;;;;;;;;;;;;;27.77;25.89;100576.25;5056871;28;1126;-16
2023/02/27 07:26:47;;;;;;;;;;;;;;;29.66;23.90;100566.72;5047800;28;1154;-16
2023/02/27 07:29:13;;;;;;;;;;;;;;;28.55;24.50;100566.56;5045224;28;1044;-16
2023/02/27 07:31:39;;;;;;;;;;;;;;;28.41;24.68;100571.88;5051590;28;897;-16
2023/02/27 07:34:04;;;;;;;;;;;;;;;28.80;24.76;100563.38;5041947;28;1028;-16
2023/02/27 07:36:30;;;;;;;;;;;;;;;29.86;23.33;100560.50;5046524;28;1154;-16
2023/02/27 07:38:56;;;;;;;;;;;;;;;28.33;24.53;100569.31;5050120;28;1910;-16
2023/02/27 07:41:22;;;;;;;;;;;;;;;27.97;24.90;100592.69;5045039;28;966;-16
2023/02/27 07:43:48;;;;;;;;;;;;;;;28.58;24.85;100585.94;5045315;28;1004;-16
2023/02/27 07:46:13;;;;;;;;;;;;;;;29.68;23.16;100586.31;5047836;28;1155;-16
2023/02/27 07:48:39;;;;;;;;;;;;;;;28.33;24.57;100590.94;5039140;28;1388;-15
2023/02/27 07:51:04;;;;;;;;;;;;;;;28.04;24.52;100590.88;5042333;28;1008;-16
2023/02/27 07:53:30;;;;;;;;;;;;;;;28.88;24.03;100603.84;5055500;28;1062;-16
2023/02/27 07:55:55;;;;;;;;;;;;;;;29.99;22.37;100613.94;5056661;28;1059;-16
2023/02/27 07:58:21;;;;;;;;;;;;;;;27.92;24.93;100614.03;5058791;28;1906;-16
2023/02/27 08:00:46;;;;;;;;;;;;;;;27.58;25.49;100616.34;5045270;28;1166;-16
2023/02/27 08:03:12;;;;;;;;;;;;;;;29.09;23.75;100612.97;5057422;28;1070;-16
2023/02/27 08:05:37;;;;;;;;;;;;;;;28.93;23.55;100606.78;5045376;28;1103;-16
2023/02/27 08:08:03;;;;;;;;;;;;;;;27.60;25.11;100617.84;5058293;28;1106;-16
2023/02/27 08:10:28;;;;;;;;;;;;;;;27.64;25.26;100612.91;5044837;28;1111;-16
2023/02/27 08:12:54;;;;;;;;;;;;;;;29.36;23.41;100623.09;5047060;28;1206;-16
2023/02/27 08:15:19;;;;;;;;;;;;;;;28.12;24.93;100619.66;5051525;28;1088;-15
2023/02/27 08:17:45;;;;;;;;;;;;;;;27.69;25.49;100621.31;5048794;28;1989;-15
2023/02/27 08:20:12;;;;;;;;;;;;;;;28.41;24.76;100628.69;5057716;28;1384;-15
2023/02/27 08:22:37;;;;;;;;;;;;;;;29.81;22.93;100631.59;5052942;28;1138;-17
2023/02/27 08:25:05;;;;;;;;;;;;;;;28.16;24.74;100630.94;5057806;28;1202;-17
2023/02/27 08:27:31;;;;;;;;;;;;;;;27.90;25.78;100630.47;5058608;28;1122;-16
2023/02/27 08:29:57;;;;;;;;;;;;;;;28.72;24.51;100638.31;5054034;28;1023;-17
2023/02/27 08:32:22;;;;;;;;;;;;;;;29.69;25.17;100631.38;5057694;28;1082;-17
2023/02/27 08:34:48;;;;;;;;;;;;;;;28.92;24.21;100655.72;5044389;28;1150;-17
2023/02/27 08:37:13;;;;;;;;;;;;;;;28.39;25.26;100662.38;5058119;28;1142;-17
2023/02/27 08:39:39;;;;;;;;;;;;;;;28.15;25.32;100684.19;5057934;28;1910;-16
2023/02/27 08:42:05;;;;;;;;;;;;;;;29.39;24.14;100677.72;5057346;28;899;-16
2023/02/27 08:44:31;;;;;;;;;;;;;;;28.34;24.93;100693.53;5053403;28;1106;-16
2023/02/27 08:46:56;;;;;;;;;;;;;;;28.27;25.06;100695.34;5049140;28;1222;-17
2023/02/27 08:49:24;;;;;;;;;;;;;;;28.99;24.64;100699.97;5055337;28;1060;-16
2023/02/27 08:51:49;;;;;;;;;;;;;;;28.20;25.00;100705.22;5056240;28;1175;-16
2023/02/27 08:54:14;;;;;;;;;;;;;;;28.22;25.28;100708.59;5057313;28;1111;-17
2023/02/27 08:56:40;;;;;;;;;;;;;;;28.95;24.75;100706.78;5057117;28;1070;-16
2023/02/27 08:59:05;;;;;;;;;;;;;;;28.64;24.45;100707.97;5057193;28;1907;-16
2023/02/27 09:01:33;;;;;;;;;;;;;;;28.43;24.87;100706.94;5056811;28;1032;-16
2023/02/27 09:03:59;;;;;;;;;;;;;;;28.78;24.97;100717.88;5044564;28;1136;-16
2023/02/27 09:06:25;;;;;;;;;;;;;;;29.04;24.15;100715.63;5056831;28;865;-16
2023/02/27 09:08:50;;;;;;;;;;;;;;;28.67;24.63;100719.25;5050124;28;1183;-16
2023/02/27 09:11:16;;;;;;;;;;;;;;;28.62;24.56;100720.88;5050828;28;1103;-17
2023/02/27 09:13:41;;;;;;;;;;;;;;;29.46;23.80;100718.41;5056455;28;1098;-17
2023/02/27 09:16:07;;;;;;;;;;;;;;;28.49;24.92;100722.44;5047327;28;1238;-16
2023/02/27 09:18:32;;;;;;;;;;;;;;;28.95;24.18;100725.72;5053032;28;1914;-17
2023/02/27 09:20:58;;;;;;;;;;;;;;;29.21;24.05;100729.72;5057191;28;1155;-16
2023/02/27 09:23:23;;;;;;;;;;;;;;;28.59;24.44;100735.63;5056393;28;1086;-17
2023/02/27 09:25:48;;;;;;;;;;;;;;;28.86;24.25;100735.88;5056676;28;1078;-16
2023/02/27 09:28:14;;;;;;;;;;;;;;;28.80;23.97;100742.06;5056521;28;1290;-16
2023/02/27 09:30:39;;;;;;;;;;;;;;;29.29;23.81;100745.81;5047405;28;1214;-16
2023/02/27 09:33:05;;;;;;;;;;;;;;;28.71;24.26;100746.78;5056353;28;1062;-16
2023/02/27 09:35:30;;;;;;;;;;;;;;;28.81;24.29;100747.28;5037421;28;1226;-17
2023/02/27 09:37:56;;;;;;;;;;;;;;;28.92;24.37;100742.38;5034901;28;1898;-16
2023/02/27 09:40:22;;;;;;;;;;;;;;;28.74;23.82;100749.09;5055468;28;1067;-17
2023/02/27 09:42:47;;;;;;;;;;;;;;;28.58;24.09;100751.03;5049593;28;839;-16
2023/02/27 09:45:18;;;;;;;;;;;;;;;28.71;24.12;100754.91;5048104;28;1151;-16
2023/02/27 09:47:46;;;;;;;;;;;;;;;29.21;23.46;100764.94;5035172;28;1357;-17
2023/02/27 09:50:24;;;;;;;;;;;;;;;28.45;24.43;100762.56;5035479;28;1195;-16
2023/02/27 09:52:49;;;;;;;;;;;;;;;28.90;23.62;100776.91;5052273;28;1156;-16
2023/02/27 09:55:16;;;;;;;;;;;;;;;28.59;24.06;100768.09;5056260;28;1034;-16
2023/02/27 09:57:55;;;;;;;;;;;;;;;29.17;23.27;100766.34;5056008;28;1283;-17
2023/02/27 10:00:29;;;;;;;;;;;;;;;28.84;23.68;100765.00;5055354;28;1306;-16
2023/02/27 10:02:58;;;;;;;;;;;;;;;28.60;23.94;100765.22;5042653;28;1074;-16
2023/02/27 10:05:34;;;;;;;;;;;;;;;29.25;23.29;100765.34;5055384;28;1255;-16
2023/02/27 10:08:05;;;;;;;;;;;;;;;28.59;24.11;100771.63;5042770;28;1198;-16
2023/02/27 10:10:40;;;;;;;;;;;;;;;28.90;23.46;100768.78;5055405;28;1203;-17
2023/02/27 10:13:08;;;;;;;;;;;;;;;28.63;23.71;100763.16;5056063;28;1230;-17
2023/02/27 10:15:36;;;;;;;;;;;;;;;29.37;23.18;100771.91;5042266;28;957;-16
2023/02/27 10:18:25;;;;;;;;;;;;;;;28.85;23.78;100777.50;5053910;28;1882;-22
2023/02/27 10:20:54;;;;;;;;;;;;;;;29.29;22.84;100778.31;5027978;28;1080;-26
2023/02/27 10:23:21;;;;;;;;;;;;;;;29.23;23.18;100770.16;5051578;28;1143;-24
2023/02/27 10:25:47;;;;;;;;;;;;;;;29.49;23.09;100777.63;5054006;28;1059;-23
2023/02/27 10:28:14;;;;;;;;;;;;;;;29.56;22.82;100777.66;5053937;28;1063;-25
2023/02/27 10:30:40;;;;;;;;;;;;;;;29.32;23.09;100777.94;5050440;28;977;-23
2023/02/27 10:33:14;;;;;;;;;;;;;;;29.35;23.16;100776.69;5053807;28;1130;-23
2023/02/27 10:35:41;;;;;;;;;;;;;;;29.28;23.13;100779.34;5049623;28;1226;-26
2023/02/27 10:38:11;;;;;;;;;;;;;;;29.42;23.07;100783.00;5043341;28;1981;-23
2023/02/27 10:40:36;;;;;;;;;;;;;;;29.57;22.71;100787.47;5040662;28;1278;-22
2023/02/27 10:43:02;;;;;;;;;;;;;;;29.65;22.65;100772.94;5050157;28;1450;-24
2023/02/27 10:45:27;;;;;;;;;;;;;;;29.48;22.83;100792.19;5052539;28;1353;-24
2023/02/27 10:47:53;;;;;;;;;;;;;;;29.53;22.79;100795.16;5046691;28;1356;-25
2023/02/27 10:50:31;;;;;;;;;;;;;;;29.55;22.88;100792.22;5046580;28;1352;-25
2023/02/27 10:52:58;;;;;;;;;;;;;;;29.51;22.78;100783.66;5052266;28;1240;-23
2023/02/27 10:55:27;;;;;;;;;;;;;;;29.40;22.90;100792.34;5045531;28;1318;-25
2023/02/27 10:57:54;;;;;;;;;;;;;;;29.51;22.73;100790.97;5052680;28;2037;-23
2023/02/27 11:00:30;;;;;;;;;;;;;;;29.54;22.82;100791.41;5039132;28;1230;-25
2023/02/27 11:02:55;;;;;;;;;;;;;;;29.50;22.84;100795.53;5055378;28;1238;-25
2023/02/27 11:05:23;;;;;;;;;;;;;;;29.67;22.44;100779.00;5054123;28;1036;-22
2023/02/27 11:07:48;;;;;;;;;;;;;;;29.45;22.83;100793.44;5054089;28;1043;-22
2023/02/27 11:10:15;;;;;;;;;;;;;;;29.51;22.95;100789.06;5054034;28;1036;-23
2023/02/27 11:12:41;;;;;;;;;;;;;;;29.38;23.13;100791.72;5055294;28;1071;-25
2023/02/27 11:15:10;;;;;;;;;;;;;;;29.36;23.27;100796.50;5045810;28;1134;-23
2023/02/27 11:17:35;;;;;;;;;;;;;;;29.21;23.61;100802.84;5048143;28;1198;-22
2023/02/27 11:20:04;;;;;;;;;;;;;;;29.20;23.22;100804.72;5050411;28;1910;-23
2023/02/27 11:22:30;;;;;;;;;;;;;;;29.35;23.27;100801.06;5048705;28;1330;-23
2023/02/27 11:25:14;;;;;;;;;;;;;;;29.39;22.88;100799.66;5042576;28;1302;-22
2023/02/27 11:27:39;;;;;;;;;;;;;;;28.81;23.74;100800.59;5054652;28;1258;-22
2023/02/27 11:30:06;;;;;;;;;;;;;;;29.21;23.08;100809.09;5051716;28;1199;-23
2023/02/27 11:32:36;;;;;;;;;;;;;;;29.26;23.26;100800.38;5053567;28;1014;-22
2023/02/27 11:35:03;;;;;;;;;;;;;;;29.13;23.67;100800.28;5046071;28;1046;-23
2023/02/27 11:37:32;;;;;;;;;;;;;;;29.61;23.00;100810.47;5053405;28;1080;-22
2023/02/27 11:40:01;;;;;;;;;;;;;;;29.07;23.08;100807.31;5038395;28;1981;-27
2023/02/27 11:42:30;;;;;;;;;;;;;;;28.96;23.05;100824.91;5051065;28;1361;-22
2023/02/27 11:44:57;;;;;;;;;;;;;;;28.34;23.08;100811.75;5057710;28;1176;-23
2023/02/27 11:47:24;;;;;;;;;;;;;;;28.98;21.86;100812.00;5057170;28;1111;-27
2023/02/27 11:50:08;;;;;;;;;;;;;;;28.69;25.41;100809.25;5058074;28;1073;-25
2023/02/27 11:52:36;;;;;;;;;;;;;;;28.55;25.75;100818.22;5057312;28;1175;-26
2023/02/27 11:55:02;;;;;;;;;;;;;;;29.20;23.30;100817.41;5056011;28;919;-26
2023/02/27 11:57:32;;;;;;;;;;;;;;;28.46;24.99;100839.97;5053451;28;1040;-28
2023/02/27 12:00:00;;;;;;;;;;;;;;;28.72;24.46;100818.81;5049547;28;1914;-22
2023/02/27 12:02:31;;;;;;;;;;;;;;;29.62;23.25;100820.25;5057125;28;1083;-25
2023/02/27 12:05:14;;;;;;;;;;;;;;;29.03;23.75;100820.41;5057135;28;1083;-24
2023/02/27 12:07:47;;;;;;;;;;;;;;;28.82;23.97;100823.91;5048797;28;873;-23
2023/02/27 12:10:15;;;;;;;;;;;;;;;28.68;23.51;100812.97;5049549;28;1231;-26
2023/02/27 12:12:59;;;;;;;;;;;;;;;29.45;22.55;100820.53;5052671;28;1119;-26
2023/02/27 12:15:25;;;;;;;;;;;;;;;28.85;22.96;100816.25;5055536;28;1270;-27
2023/02/27 12:17:56;;;;;;;;;;;;;;;28.73;22.73;100820.50;5057211;28;1258;-24
2023/02/27 12:20:45;;;;;;;;;;;;;;;29.05;23.23;100822.91;5057731;28;1247;-24
2023/02/27 12:23:13;;;;;;;;;;;;;;;28.75;22.37;100817.59;5041382;28;2105;-26
2023/02/27 12:25:47;;;;;;;;;;;;;;;29.18;22.42;100823.03;5056457;28;1024;-25
2023/02/27 12:28:32;;;;;;;;;;;;;;;28.73;22.60;100823.19;5056612;28;1191;-24
2023/02/27 12:31:26;;;;;;;;;;;;;;;29.64;22.17;100825.47;5052654;28;1079;-24
2023/02/27 12:34:15;;;;;;;;;;;;;;;29.00;23.02;100822.66;5044491;28;1734;-25
2023/02/27 12:36:40;;;;;;;;;;;;;;;29.00;22.98;100826.22;5040621;28;1341;-26
2023/02/27 12:39:10;;;;;;;;;;;;;;;29.77;22.36;100838.28;5057157;28;1906;-23
2023/02/27 12:41:54;;;;;;;;;;;;;;;29.08;23.06;100833.34;5056356;28;1106;-22
2023/02/27 12:44:23;;;;;;;;;;;;;;;29.16;23.02;100841.34;5041860;28;925;-25
2023/02/27 12:47:04;;;;;;;;;;;;;;;29.33;23.03;100844.63;5045249;28;1285;-24
2023/02/27 12:49:30;;;;;;;;;;;;;;;28.71;23.42;100842.34;5055632;28;1263;-23
2023/02/27 12:51:59;;;;;;;;;;;;;;;28.75;23.63;100847.38;5056958;28;1441;-22
2023/02/27 12:54:43;;;;;;;;;;;;;;;28.58;23.56;100847.59;5049885;28;1247;-27
2023/02/27 12:57:29;;;;;;;;;;;;;;;29.23;23.06;100846.81;5047076;28;1116;-26